sensor_id;sensor_type;location;lat;lon;timestamp;pressure;altitude;pressure_sealevel;temperature;humidity
51099;BME280;37146;48.210;16.234;2023-02-13T00:02:22;100905.94;;;1.01;100.00
51099;BME280;37146;48.210;16.234;2023-02-13T00:04:47;100917.53;;;1.10;100.00
51099;BME280;37146;48.210;16.234;2023-02-13T00:07:12;100905.91;;;0.98;100.00
51099;BME280;37146;48.210;16.234;2023-02-13T00:09:38;100911.66;;;0.77;100.00
51099;BME280;37146;48.210;16.234;2023-02-13T00:12:04;100908.19;;;0.80;100.00
51099;BME280;37146;48.210;16.234;2023-02-13T00:14:29;100914.22;;;0.74;100.00
51099;BME280;37146;48.210;16.234;2023-02-13T00:16:54;100906.31;;;0.72;100.00
51099;BME280;37146;48.210;16.234;2023-02-13T00:19:19;100915.69;;;0.58;100.00
51099;BME280;37146;48.210;16.234;2023-02-13T00:21:45;100913.44;;;0.76;100.00
51099;BME280;37146;48.210;16.234;2023-02-13T00:24:10;100910.31;;;0.52;100.00
51099;BME280;37146;48.210;16.234;2023-02-13T00:26:35;100900.81;;;0.60;100.00
51099;BME280;37146;48.210;16.234;2023-02-13T00:29:00;100911.34;;;0.60;100.00
51099;BME280;37146;48.210;16.234;2023-02-13T00:31:26;100905.81;;;0.46;100.00
51099;BME280;37146;48.210;16.234;2023-02-13T00:33:51;100912.03;;;0.51;100.00
51099;BME280;37146;48.210;16.234;2023-02-13T00:36:20;100916.19;;;0.40;100.00
51099;BME280;37146;48.210;16.234;2023-02-13T00:38:46;100918.69;;;0.32;100.00
51099;BME280;37146;48.210;16.234;2023-02-13T00:41:11;100913.34;;;0.29;100.00
51099;BME280;37146;48.210;16.234;2023-02-13T00:43:37;100919.63;;;0.36;100.00
51099;BME280;37146;48.210;16.234;2023-02-13T00:46:03;100915.34;;;0.41;100.00
51099;BME280;37146;48.210;16.234;2023-02-13T00:48:29;100912.03;;;0.51;100.00
51099;BME280;37146;48.210;16.234;2023-02-13T00:50:55;100919.59;;;0.34;100.00
51099;BME280;37146;48.210;16.234;2023-02-13T00:53:21;100912.66;;;0.38;100.00
51099;BME280;37146;48.210;16.234;2023-02-13T00:55:46;100919.06;;;0.51;100.00
51099;BME280;37146;48.210;16.234;2023-02-13T00:58:11;100918.72;;;0.35;100.00
51099;BME280;37146;48.210;16.234;2023-02-13T01:00:37;100923.88;;;0.27;100.00
51099;BME280;37146;48.210;16.234;2023-02-13T01:03:02;100927.28;;;0.25;100.00
51099;BME280;37146;48.210;16.234;2023-02-13T01:05:28;100925.31;;;0.14;100.00
51099;BME280;37146;48.210;16.234;2023-02-13T01:07:53;100916.38;;;0.06;100.00
51099;BME280;37146;48.210;16.234;2023-02-13T01:10:18;100916.56;;;0.15;100.00
51099;BME280;37146;48.210;16.234;2023-02-13T01:12:43;100911.78;;;-0.04;100.00
51099;BME280;37146;48.210;16.234;2023-02-13T01:15:09;100917.81;;;-0.08;100.00
51099;BME280;37146;48.210;16.234;2023-02-13T01:17:34;100917.97;;;-0.02;100.00
51099;BME280;37146;48.210;16.234;2023-02-13T01:19:59;100910.88;;;-0.05;100.00
51099;BME280;37146;48.210;16.234;2023-02-13T01:22:24;100911.41;;;-0.20;100.00
51099;BME280;37146;48.210;16.234;2023-02-13T01:24:50;100921.09;;;-0.19;100.00
51099;BME280;37146;48.210;16.234;2023-02-13T01:27:15;100913.34;;;-0.12;100.00
51099;BME280;37146;48.210;16.234;2023-02-13T01:29:40;100912.31;;;-0.19;100.00
51099;BME280;37146;48.210;16.234;2023-02-13T01:32:05;100915.69;;;-0.25;100.00
51099;BME280;37146;48.210;16.234;2023-02-13T01:34:31;100909.69;;;-0.19;100.00
51099;BME280;37146;48.210;16.234;2023-02-13T01:36:56;100916.50;;;-0.27;100.00
51099;BME280;37146;48.210;16.234;2023-02-13T01:39:22;100914.66;;;-0.32;100.00
51099;BME280;37146;48.210;16.234;2023-02-13T01:41:47;100918.84;;;-0.40;100.00
51099;BME280;37146;48.210;16.234;2023-02-13T01:46:56;100928.91;;;-0.22;100.00
51099;BME280;37146;48.210;16.234;2023-02-13T01:49:22;100913.34;;;-0.12;100.00
51099;BME280;37146;48.210;16.234;2023-02-13T01:51:49;100914.22;;;-0.12;100.00
51099;BME280;37146;48.210;16.234;2023-02-13T01:54:18;100900.41;;;-0.03;100.00
51099;BME280;37146;48.210;16.234;2023-02-13T01:56:52;100911.25;;;0.12;100.00
51099;BME280;37146;48.210;16.234;2023-02-13T01:59:20;100907.63;;;0.07;100.00
51099;BME280;37146;48.210;16.234;2023-02-13T02:01:46;100907.63;;;0.07;100.00
51099;BME280;37146;48.210;16.234;2023-02-13T02:04:13;100911.31;;;0.15;100.00
51099;BME280;37146;48.210;16.234;2023-02-13T02:06:47;100910.47;;;0.18;100.00
51099;BME280;37146;48.210;16.234;2023-02-13T02:09:15;100907.19;;;0.28;100.00
51099;BME280;37146;48.210;16.234;2023-02-13T02:11:47;100907.94;;;0.23;100.00
51099;BME280;37146;48.210;16.234;2023-02-13T02:14:15;100901.13;;;0.31;100.00
51099;BME280;37146;48.210;16.234;2023-02-13T02:16:40;100902.09;;;0.36;100.00
51099;BME280;37146;48.210;16.234;2023-02-13T02:19:08;100895.84;;;0.31;100.00
51099;BME280;37146;48.210;16.234;2023-02-13T02:36:43;100885.34;;;0.31;100.00
51099;BME280;37146;48.210;16.234;2023-02-13T02:39:13;100881.94;;;0.38;100.00
51099;BME280;37146;48.210;16.234;2023-02-13T02:46:35;100873.38;;;0.49;100.00
51099;BME280;37146;48.210;16.234;2023-02-13T02:49:06;100871.59;;;0.48;100.00
51099;BME280;37146;48.210;16.234;2023-02-13T02:54:26;100883.22;;;0.57;100.00
51099;BME280;37146;48.210;16.234;2023-02-13T02:57:19;100878.78;;;0.55;100.00
51099;BME280;37146;48.210;16.234;2023-02-13T02:59:46;100875.25;;;0.56;100.00
51099;BME280;37146;48.210;16.234;2023-02-13T03:02:31;100868.25;;;0.55;100.00
51099;BME280;37146;48.210;16.234;2023-02-13T03:05:20;100871.00;;;0.63;100.00
51099;BME280;37146;48.210;16.234;2023-02-13T03:08:05;100869.22;;;0.60;100.00
51099;BME280;37146;48.210;16.234;2023-02-13T03:10:31;100865.72;;;0.63;100.00
51099;BME280;37146;48.210;16.234;2023-02-13T03:13:17;100864.78;;;0.59;100.00
51099;BME280;37146;48.210;16.234;2023-02-13T03:15:55;100868.28;;;0.56;100.00
51099;BME280;37146;48.210;16.234;2023-02-13T03:18:41;100870.97;;;0.59;100.00
51099;BME280;37146;48.210;16.234;2023-02-13T03:24:19;100858.81;;;0.68;100.00
51099;BME280;37146;48.210;16.234;2023-02-13T03:34:43;100861.53;;;0.71;100.00
51099;BME280;37146;48.210;16.234;2023-02-13T03:37:29;100867.59;;;0.67;100.00
51099;BME280;37146;48.210;16.234;2023-02-13T03:40:19;100858.84;;;0.69;100.00
51099;BME280;37146;48.210;16.234;2023-02-13T03:45:31;100868.69;;;0.80;100.00
51099;BME280;37146;48.210;16.234;2023-02-13T03:48:18;100868.69;;;0.80;100.00
51099;BME280;37146;48.210;16.234;2023-02-13T03:51:03;100864.31;;;0.80;100.00
51099;BME280;37146;48.210;16.234;2023-02-13T03:53:32;100860.00;;;0.85;100.00
51099;BME280;37146;48.210;16.234;2023-02-13T03:55:58;100860.88;;;0.84;100.00
51099;BME280;37146;48.210;16.234;2023-02-13T03:58:49;100867.91;;;0.84;100.00
51099;BME280;37146;48.210;16.234;2023-02-13T04:01:34;100861.69;;;0.82;100.00
51099;BME280;37146;48.210;16.234;2023-02-13T04:04:06;100871.53;;;0.90;100.00
51099;BME280;37146;48.210;16.234;2023-02-13T04:06:41;100866.19;;;0.86;100.00
51099;BME280;37146;48.210;16.234;2023-02-13T04:09:10;100865.25;;;0.84;100.00
51099;BME280;37146;48.210;16.234;2023-02-13T04:14:13;100855.84;;;0.98;100.00
51099;BME280;37146;48.210;16.234;2023-02-13T04:16:41;100853.16;;;0.95;100.00
51099;BME280;37146;48.210;16.234;2023-02-13T04:19:08;100852.31;;;0.98;100.00
51099;BME280;37146;48.210;16.234;2023-02-13T04:21:35;100853.09;;;0.92;100.00
51099;BME280;37146;48.210;16.234;2023-02-13T04:24:01;100851.44;;;0.97;100.00
51099;BME280;37146;48.210;16.234;2023-02-13T04:26:28;100856.66;;;0.94;100.00
51099;BME280;37146;48.210;16.234;2023-02-13T04:28:55;100857.56;;;0.96;100.00
51099;BME280;37146;48.210;16.234;2023-02-13T04:31:20;100863.75;;;0.98;100.00
51099;BME280;37146;48.210;16.234;2023-02-13T04:33:45;100855.09;;;1.07;100.00
51099;BME280;37146;48.210;16.234;2023-02-13T04:36:11;100847.94;;;0.98;100.00
51099;BME280;37146;48.210;16.234;2023-02-13T04:38:36;100840.91;;;0.99;100.00
51099;BME280;37146;48.210;16.234;2023-02-13T04:41:01;100848.84;;;1.00;100.00
51099;BME280;37146;48.210;16.234;2023-02-13T04:43:26;100848.84;;;1.00;100.00
51099;BME280;37146;48.210;16.234;2023-02-13T04:45:51;100846.13;;;0.96;100.00
51099;BME280;37146;48.210;16.234;2023-02-13T04:48:17;100844.56;;;1.05;100.00
51099;BME280;37146;48.210;16.234;2023-02-13T04:50:42;100842.78;;;1.04;100.00
51099;BME280;37146;48.210;16.234;2023-02-13T04:53:07;100842.78;;;1.06;100.00
51099;BME280;37146;48.210;16.234;2023-02-13T04:55:33;100842.06;;;1.13;100.00
51099;BME280;37146;48.210;16.234;2023-02-13T04:57:58;100844.69;;;1.15;100.00
51099;BME280;37146;48.210;16.234;2023-02-13T05:00:25;100848.19;;;1.14;100.00
51099;BME280;37146;48.210;16.234;2023-02-13T05:02:51;100843.75;;;1.10;100.00
51099;BME280;37146;48.210;16.234;2023-02-13T05:05:16;100834.09;;;1.12;100.00
51099;BME280;37146;48.210;16.234;2023-02-13T05:07:42;100845.59;;;1.15;100.00
51099;BME280;37146;48.210;16.234;2023-02-13T05:10:08;100849.97;;;1.16;100.00
51099;BME280;37146;48.210;16.234;2023-02-13T05:12:33;100849.19;;;1.20;100.00
51099;BME280;37146;48.210;16.234;2023-02-13T05:14:58;100849.88;;;1.08;100.00
51099;BME280;37146;48.210;16.234;2023-02-13T05:17:23;100851.75;;;1.16;100.00
51099;BME280;37146;48.210;16.234;2023-02-13T05:19:49;100857.00;;;1.16;100.00
51099;BME280;37146;48.210;16.234;2023-02-13T05:22:14;100851.75;;;1.16;100.00
51099;BME280;37146;48.210;16.234;2023-02-13T05:24:58;100855.94;;;1.04;100.00
51099;BME280;37146;48.210;16.234;2023-02-13T05:27:23;100852.50;;;1.08;100.00
51099;BME280;37146;48.210;16.234;2023-02-13T05:29:48;100856.97;;;1.13;100.00
51099;BME280;37146;48.210;16.234;2023-02-13T05:32:13;100853.53;;;1.17;100.00
51099;BME280;37146;48.210;16.234;2023-02-13T05:34:38;100856.97;;;1.13;100.00
51099;BME280;37146;48.210;16.234;2023-02-13T05:37:04;100858.84;;;1.20;100.00
51099;BME280;37146;48.210;16.234;2023-02-13T05:39:29;100861.44;;;1.17;100.00
51099;BME280;37146;48.210;16.234;2023-02-13T05:41:54;100858.84;;;1.20;100.00
51099;BME280;37146;48.210;16.234;2023-02-13T05:44:19;100861.50;;;1.20;100.00
51099;BME280;37146;48.210;16.234;2023-02-13T05:46:45;100865.94;;;1.24;100.00
51099;BME280;37146;48.210;16.234;2023-02-13T05:49:10;100872.03;;;1.20;100.00
51099;BME280;37146;48.210;16.234;2023-02-13T05:51:36;100865.91;;;1.21;100.00
51099;BME280;37146;48.210;16.234;2023-02-13T05:54:01;100865.84;;;1.18;100.00
51099;BME280;37146;48.210;16.234;2023-02-13T05:56:27;100867.56;;;1.16;100.00
51099;BME280;37146;48.210;16.234;2023-02-13T05:58:53;100867.63;;;1.20;100.00
51099;BME280;37146;48.210;16.234;2023-02-13T06:01:19;100870.13;;;1.13;100.00
51099;BME280;37146;48.210;16.234;2023-02-13T06:03:44;100876.25;;;1.12;100.00
51099;BME280;37146;48.210;16.234;2023-02-13T06:06:09;100871.97;;;1.18;100.00
51099;BME280;37146;48.210;16.234;2023-02-13T06:08:35;100872.97;;;1.25;100.00
51099;BME280;37146;48.210;16.234;2023-02-13T06:11:00;100874.59;;;1.17;100.00
51099;BME280;37146;48.210;16.234;2023-02-13T06:13:25;100873.97;;;1.32;100.00
51099;BME280;37146;48.210;16.234;2023-02-13T06:15:50;100874.03;;;1.36;100.00
51099;BME280;37146;48.210;16.234;2023-02-13T06:18:16;100877.59;;;1.37;100.00
51099;BME280;37146;48.210;16.234;2023-02-13T06:20:41;100882.09;;;1.46;100.00
51099;BME280;37146;48.210;16.234;2023-02-13T06:23:06;100879.38;;;1.41;100.00
51099;BME280;37146;48.210;16.234;2023-02-13T06:25:33;100882.81;;;1.35;100.00
51099;BME280;37146;48.210;16.234;2023-02-13T06:27:58;100883.81;;;1.44;100.00
51099;BME280;37146;48.210;16.234;2023-02-13T06:30:23;100883.81;;;1.44;100.00
51099;BME280;37146;48.210;16.234;2023-02-13T06:32:48;100887.50;;;1.55;100.00
51099;BME280;37146;48.210;16.234;2023-02-13T06:35:14;100884.72;;;1.44;100.00
51099;BME280;37146;48.210;16.234;2023-02-13T06:37:40;100889.97;;;1.43;100.00
51099;BME280;37146;48.210;16.234;2023-02-13T06:40:08;100881.41;;;1.58;100.00
51099;BME280;37146;48.210;16.234;2023-02-13T06:42:33;100886.66;;;1.56;100.00
51099;BME280;37146;48.210;16.234;2023-02-13T06:44:59;100887.56;;;1.58;100.00
51099;BME280;37146;48.210;16.234;2023-02-13T06:47:24;100892.84;;;1.58;100.00
51099;BME280;37146;48.210;16.234;2023-02-13T06:49:49;100889.28;;;1.56;100.00
51099;BME280;37146;48.210;16.234;2023-02-13T06:52:14;100897.25;;;1.61;100.00
51099;BME280;37146;48.210;16.234;2023-02-13T06:54:40;100890.19;;;1.58;100.00
51099;BME280;37146;48.210;16.234;2023-02-13T06:57:05;100901.66;;;1.60;100.00
51099;BME280;37146;48.210;16.234;2023-02-13T06:59:30;100901.59;;;1.57;100.00
51099;BME280;37146;48.210;16.234;2023-02-13T07:01:55;100892.84;;;1.58;100.00
51099;BME280;37146;48.210;16.234;2023-02-13T07:04:21;100893.75;;;1.62;100.00
51099;BME280;37146;48.210;16.234;2023-02-13T07:06:46;100899.03;;;1.60;100.00
51099;BME280;37146;48.210;16.234;2023-02-13T07:09:11;100898.22;;;1.64;100.00
51099;BME280;37146;48.210;16.234;2023-02-13T07:11:37;100904.38;;;1.66;100.00
51099;BME280;37146;48.210;16.234;2023-02-13T07:14:03;100908.88;;;1.72;100.00
51099;BME280;37146;48.210;16.234;2023-02-13T07:16:28;100903.53;;;1.67;100.00
51099;BME280;37146;48.210;16.234;2023-02-13T07:18:53;100912.34;;;1.71;100.00
51099;BME280;37146;48.210;16.234;2023-02-13T07:21:18;100908.94;;;1.77;100.00
51099;BME280;37146;48.210;16.234;2023-02-13T07:23:44;100910.63;;;1.70;100.00
51099;BME280;37146;48.210;16.234;2023-02-13T07:26:09;100912.47;;;1.79;100.00
51099;BME280;37146;48.210;16.234;2023-02-13T07:28:35;100906.41;;;1.83;100.00
51099;BME280;37146;48.210;16.234;2023-02-13T07:31:03;100909.97;;;1.88;100.00
51099;BME280;37146;48.210;16.234;2023-02-13T07:33:29;100914.38;;;1.89;100.00
51099;BME280;37146;48.210;16.234;2023-02-13T07:35:54;100914.56;;;1.98;100.00
51099;BME280;37146;48.210;16.234;2023-02-13T07:38:20;100912.78;;;2.00;100.00
51099;BME280;37146;48.210;16.234;2023-02-13T07:40:45;100914.56;;;2.01;100.00
51099;BME280;37146;48.210;16.234;2023-02-13T07:43:11;100909.41;;;2.08;100.00
51099;BME280;37146;48.210;16.234;2023-02-13T07:45:36;100909.41;;;2.08;100.00
51099;BME280;37146;48.210;16.234;2023-02-13T07:48:01;100913.75;;;2.06;100.00
51099;BME280;37146;48.210;16.234;2023-02-13T07:50:27;100915.50;;;2.05;100.00
51099;BME280;37146;48.210;16.234;2023-02-13T07:52:56;100918.19;;;2.07;100.00
51099;BME280;37146;48.210;16.234;2023-02-13T07:55:21;100915.56;;;2.10;100.00
51099;BME280;37146;48.210;16.234;2023-02-13T07:57:47;100924.44;;;2.16;100.00
51099;BME280;37146;48.210;16.234;2023-02-13T08:00:13;100912.22;;;2.22;100.00
51099;BME280;37146;48.210;16.234;2023-02-13T08:02:38;100915.78;;;2.27;100.00
51099;BME280;37146;48.210;16.234;2023-02-13T08:05:04;100914.97;;;2.32;100.00
51099;BME280;37146;48.210;16.234;2023-02-13T08:07:29;100911.47;;;2.34;100.00
51099;BME280;37146;48.210;16.234;2023-02-13T08:09:54;100909.78;;;2.39;100.00
51099;BME280;37146;48.210;16.234;2023-02-13T08:12:38;100911.56;;;2.43;100.00
51099;BME280;37146;48.210;16.234;2023-02-13T08:15:03;100914.25;;;2.46;100.00
51099;BME280;37146;48.210;16.234;2023-02-13T08:17:29;100916.03;;;2.48;100.00
51099;BME280;37146;48.210;16.234;2023-02-13T08:19:54;100916.94;;;2.49;100.00
51099;BME280;37146;48.210;16.234;2023-02-13T08:22:19;100919.66;;;2.55;100.00
51099;BME280;37146;48.210;16.234;2023-02-13T08:24:45;100921.47;;;2.61;100.00
51099;BME280;37146;48.210;16.234;2023-02-13T08:27:11;100918.84;;;2.61;100.00
51099;BME280;37146;48.210;16.234;2023-02-13T08:29:36;100921.56;;;2.67;100.00
51099;BME280;37146;48.210;16.234;2023-02-13T08:32:01;100926.03;;;2.73;100.00
51099;BME280;37146;48.210;16.234;2023-02-13T08:34:27;100921.66;;;2.78;100.00
51099;BME280;37146;48.210;16.234;2023-02-13T08:36:52;100921.75;;;2.86;100.00
51099;BME280;37146;48.210;16.234;2023-02-13T08:39:17;100925.41;;;2.97;100.00
51099;BME280;37146;48.210;16.234;2023-02-13T08:41:42;100926.34;;;3.04;100.00
51099;BME280;37146;48.210;16.234;2023-02-13T08:44:08;100929.00;;;3.02;100.00
51099;BME280;37146;48.210;16.234;2023-02-13T08:46:33;100928.13;;;3.05;100.00
51099;BME280;37146;48.210;16.234;2023-02-13T08:48:59;100930.78;;;3.05;100.00
51099;BME280;37146;48.210;16.234;2023-02-13T08:51:24;100923.78;;;3.12;100.00
51099;BME280;37146;48.210;16.234;2023-02-13T08:53:49;100926.53;;;3.19;100.00
51099;BME280;37146;48.210;16.234;2023-02-13T08:56:14;100918.72;;;3.35;100.00
51099;BME280;37146;48.210;16.234;2023-02-13T08:58:39;100915.13;;;3.28;100.00
51099;BME280;37146;48.210;16.234;2023-02-13T09:01:05;100924.00;;;3.33;100.00
51099;BME280;37146;48.210;16.234;2023-02-13T09:03:31;100933.69;;;3.36;100.00
51099;BME280;37146;48.210;16.234;2023-02-13T09:06:00;100931.06;;;3.37;100.00
51099;BME280;37146;48.210;16.234;2023-02-13T09:08:25;100928.56;;;3.51;100.00
51099;BME280;37146;48.210;16.234;2023-02-13T09:11:00;100931.19;;;3.51;100.00
51099;BME280;37146;48.210;16.234;2023-02-13T09:13:29;100924.16;;;3.55;100.00
51099;BME280;37146;48.210;16.234;2023-02-13T09:15:58;100930.38;;;3.59;100.00
51099;BME280;37146;48.210;16.234;2023-02-13T09:18:23;100923.38;;;3.64;100.00
51099;BME280;37146;48.210;16.234;2023-02-13T09:20:49;100921.59;;;3.64;100.00
51099;BME280;37146;48.210;16.234;2023-02-13T09:23:14;100937.56;;;3.78;100.00
51099;BME280;37146;48.210;16.234;2023-02-13T09:25:39;100930.50;;;3.74;100.00
51099;BME280;37146;48.210;16.234;2023-02-13T09:28:04;100926.97;;;3.78;100.00
51099;BME280;37146;48.210;16.234;2023-02-13T09:30:30;100939.34;;;3.79;100.00
51099;BME280;37146;48.210;16.234;2023-02-13T09:32:55;100928.84;;;3.92;100.00
51099;BME280;37146;48.210;16.234;2023-02-13T09:35:20;100931.59;;;4.09;100.00
51099;BME280;37146;48.210;16.234;2023-02-13T09:37:46;100935.97;;;4.02;100.00
51099;BME280;37146;48.210;16.234;2023-02-13T09:40:15;100939.44;;;3.98;100.00
51099;BME280;37146;48.210;16.234;2023-02-13T09:42:42;100943.84;;;3.94;100.00
51099;BME280;37146;48.210;16.234;2023-02-13T09:45:09;100940.38;;;4.03;100.00
51099;BME280;37146;48.210;16.234;2023-02-13T09:47:36;100943.06;;;4.06;100.00
51099;BME280;37146;48.210;16.234;2023-02-13T09:50:05;100944.75;;;3.98;100.00
51099;BME280;37146;48.210;16.234;2023-02-13T09:52:32;100941.28;;;4.08;100.00
51099;BME280;37146;48.210;16.234;2023-02-13T09:54:57;100944.81;;;4.10;100.00
51099;BME280;37146;48.210;16.234;2023-02-13T09:57:31;100937.72;;;4.03;100.00
51099;BME280;37146;48.210;16.234;2023-02-13T10:00:09;100936.03;;;4.14;100.00
51099;BME280;37146;48.210;16.234;2023-02-13T10:08:04;100943.97;;;4.13;100.00
51099;BME280;37146;48.210;16.234;2023-02-13T10:18:17;100945.84;;;4.36;100.00
51099;BME280;37146;48.210;16.234;2023-02-13T10:20:52;100938.84;;;4.45;100.00
51099;BME280;37146;48.210;16.234;2023-02-13T10:26:07;100941.53;;;4.52;100.00
51099;BME280;37146;48.210;16.234;2023-02-13T10:28:39;100943.25;;;4.46;100.00
51099;BME280;37146;48.210;16.234;2023-02-13T10:31:06;100932.72;;;4.57;100.00
51099;BME280;37146;48.210;16.234;2023-02-13T10:33:37;100925.63;;;4.55;100.00
51099;BME280;37146;48.210;16.234;2023-02-13T10:38:34;100927.47;;;4.77;100.00
51099;BME280;37146;48.210;16.234;2023-02-13T10:41:04;100916.88;;;4.82;100.00
51099;BME280;37146;48.210;16.234;2023-02-13T10:51:43;100907.19;;;5.07;100.00
51099;BME280;37146;48.210;16.234;2023-02-13T10:54:24;100903.69;;;5.19;100.00
51099;BME280;37146;48.210;16.234;2023-02-13T10:59:46;100901.03;;;5.18;99.51
51099;BME280;37146;48.210;16.234;2023-02-13T11:04:42;100898.38;;;5.18;97.74
51099;BME280;37146;48.210;16.234;2023-02-13T11:07:10;100890.44;;;5.18;98.96
51099;BME280;37146;48.210;16.234;2023-02-13T11:09:38;100885.13;;;5.18;97.28
51099;BME280;37146;48.210;16.234;2023-02-13T11:12:25;100890.44;;;5.19;97.49
51099;BME280;37146;48.210;16.234;2023-02-13T11:14:58;100890.41;;;5.30;96.34
51099;BME280;37146;48.210;16.234;2023-02-13T11:17:23;100893.06;;;5.38;97.36
51099;BME280;37146;48.210;16.234;2023-02-13T11:19:53;100885.09;;;5.55;96.95
51099;BME280;37146;48.210;16.234;2023-02-13T11:22:29;100886.00;;;5.51;95.94
51099;BME280;37146;48.210;16.234;2023-02-13T11:24:57;100886.00;;;5.52;96.35
51099;BME280;37146;48.210;16.234;2023-02-13T11:27:26;100885.13;;;5.49;95.94
51099;BME280;37146;48.210;16.234;2023-02-13T11:29:53;100876.28;;;5.47;96.75
51099;BME280;37146;48.210;16.234;2023-02-13T11:32:23;100883.31;;;5.69;96.67
51099;BME280;37146;48.210;16.234;2023-02-13T11:34:49;100879.78;;;5.67;95.34
51099;BME280;37146;48.210;16.234;2023-02-13T11:37:30;100880.63;;;5.80;95.96
51099;BME280;37146;48.210;16.234;2023-02-13T11:39:57;100877.09;;;5.81;94.71
51099;BME280;37146;48.210;16.234;2023-02-13T11:44:51;100874.50;;;5.66;91.77
51099;BME280;37146;48.210;16.234;2023-02-13T11:47:28;100877.13;;;5.69;91.02
51099;BME280;37146;48.210;16.234;2023-02-13T11:49:54;100881.53;;;5.78;91.53
51099;BME280;37146;48.210;16.234;2023-02-13T11:52:23;100879.78;;;5.83;91.19
51099;BME280;37146;48.210;16.234;2023-02-13T11:54:57;100878.88;;;5.82;91.02
51099;BME280;37146;48.210;16.234;2023-02-13T11:57:30;100877.97;;;5.94;90.69
51099;BME280;37146;48.210;16.234;2023-02-13T11:59:56;100874.44;;;5.89;88.92
51099;BME280;37146;48.210;16.234;2023-02-13T12:02:23;100873.59;;;5.76;89.45
51099;BME280;37146;48.210;16.234;2023-02-13T12:04:49;100865.59;;;5.75;88.85
51099;BME280;37146;48.210;16.234;2023-02-13T12:09:44;100865.63;;;5.71;89.59
51099;BME280;37146;48.210;16.234;2023-02-13T12:12:14;100864.72;;;5.79;89.18
51099;BME280;37146;48.210;16.234;2023-02-13T12:14:41;100868.28;;;5.76;90.54
51099;BME280;37146;48.210;16.234;2023-02-13T12:17:18;100870.91;;;5.78;89.36
51099;BME280;37146;48.210;16.234;2023-02-13T12:19:46;100869.16;;;5.70;89.24
51099;BME280;37146;48.210;16.234;2023-02-13T12:22:21;100862.06;;;5.86;88.90
51099;BME280;37146;48.210;16.234;2023-02-13T12:27:39;100850.56;;;5.83;86.99
51099;BME280;37146;48.210;16.234;2023-02-13T12:30:13;100844.34;;;5.88;86.84
51099;BME280;37146;48.210;16.234;2023-02-13T12:35:20;100837.25;;;6.00;84.14
51099;BME280;37146;48.210;16.234;2023-02-13T12:38:00;100841.59;;;6.18;85.22
51099;BME280;37146;48.210;16.234;2023-02-13T12:45:52;100838.81;;;6.47;84.83
51099;BME280;37146;48.210;16.234;2023-02-13T12:53:14;100836.19;;;6.40;84.25
51099;BME280;37146;48.210;16.234;2023-02-13T12:56:26;100837.22;;;6.14;84.94
51099;BME280;37146;48.210;16.234;2023-02-13T13:11:44;100819.13;;;6.75;82.14
51099;BME280;37146;48.210;16.234;2023-02-13T13:21:54;100823.47;;;6.90;78.62
51099;BME280;37146;48.210;16.234;2023-02-13T13:26:47;100824.38;;;6.87;79.40
51099;BME280;37146;48.210;16.234;2023-02-13T13:29:17;100822.69;;;6.77;79.65
51099;BME280;37146;48.210;16.234;2023-02-13T13:31:54;100826.13;;;6.91;79.68
51099;BME280;37146;48.210;16.234;2023-02-13T13:34:21;100818.94;;;7.03;79.04
51099;BME280;37146;48.210;16.234;2023-02-13T13:36:49;100827.00;;;6.92;79.24
51099;BME280;37146;48.210;16.234;2023-02-13T13:41:56;100821.66;;;6.98;77.76
51099;BME280;37146;48.210;16.234;2023-02-13T13:46:58;100818.91;;;7.06;77.75
51099;BME280;37146;48.210;16.234;2023-02-13T13:52:33;100816.44;;;6.79;76.14
51099;BME280;37146;48.210;16.234;2023-02-13T13:54:59;100817.38;;;6.74;75.88
51099;BME280;37146;48.210;16.234;2023-02-13T13:57:27;100820.06;;;6.71;76.60
51099;BME280;37146;48.210;16.234;2023-02-13T14:02:41;100818.41;;;6.53;79.41
51099;BME280;37146;48.210;16.234;2023-02-13T14:05:17;100816.66;;;6.45;80.10
51099;BME280;37146;48.210;16.234;2023-02-13T14:07:43;100820.22;;;6.49;79.60
51099;BME280;37146;48.210;16.234;2023-02-13T14:25:46;100796.25;;;6.52;78.74
51099;BME280;37146;48.210;16.234;2023-02-13T14:28:20;100800.69;;;6.55;77.82
51099;BME280;37146;48.210;16.234;2023-02-13T14:30:46;100796.25;;;6.52;76.72
51099;BME280;37146;48.210;16.234;2023-02-13T14:33:31;100809.59;;;6.46;78.16
51099;BME280;37146;48.210;16.234;2023-02-13T14:36:00;100803.38;;;6.44;79.47
51099;BME280;37146;48.210;16.234;2023-02-13T14:38:27;100795.38;;;6.52;77.53
51099;BME280;37146;48.210;16.234;2023-02-13T14:40:52;100803.31;;;6.53;78.17
51099;BME280;37146;48.210;16.234;2023-02-13T14:43:28;100801.59;;;6.47;77.72
51099;BME280;37146;48.210;16.234;2023-02-13T14:46:02;100804.31;;;6.35;78.68
51099;BME280;37146;48.210;16.234;2023-02-13T14:48:33;100807.00;;;6.30;80.08
51099;BME280;37146;48.210;16.234;2023-02-13T14:50:59;100812.28;;;6.37;79.36
51099;BME280;37146;48.210;16.234;2023-02-13T14:53:27;100806.94;;;6.40;77.66
51099;BME280;37146;48.210;16.234;2023-02-13T14:55:58;100808.75;;;6.36;78.55
51099;BME280;37146;48.210;16.234;2023-02-13T14:58:30;100800.81;;;6.27;79.31
51099;BME280;37146;48.210;16.234;2023-02-13T15:03:46;100802.63;;;6.23;80.34
51099;BME280;37146;48.210;16.234;2023-02-13T15:06:25;100797.28;;;6.25;80.05
51099;BME280;37146;48.210;16.234;2023-02-13T15:08:51;100800.00;;;6.14;80.38
51099;BME280;37146;48.210;16.234;2023-02-13T15:11:37;100801.81;;;6.06;80.62
51099;BME280;37146;48.210;16.234;2023-02-13T15:16:44;100789.38;;;6.14;80.04
51099;BME280;37146;48.210;16.234;2023-02-13T15:19:14;100790.25;;;6.14;79.25